createdAt,value
2022-08-24T00:03:34.810Z,150.02007
2022-08-24T00:08:35.897Z,150.71141
2022-08-24T00:13:39.248Z,150.02007
2022-08-24T00:23:46.124Z,150.02007
2022-08-24T00:28:47.078Z,150.02007
2022-08-24T00:33:48.090Z,150.02007
2022-08-24T00:38:48.999Z,150.02007
2022-08-24T00:43:49.911Z,150.71141
2022-08-24T00:48:50.808Z,150.71141
2022-08-24T00:53:51.748Z,150.71141
2022-08-24T00:58:56.979Z,150.71141
2022-08-24T01:03:58.269Z,150.71141
2022-08-24T01:08:59.209Z,151.40741
2022-08-24T01:14:00.199Z,150.71141
2022-08-24T01:19:01.145Z,150.02007
2022-08-24T01:24:02.100Z,150.71141
2022-08-24T01:29:03.102Z,150.71141
2022-08-24T01:34:05.767Z,150.71141
2022-08-24T01:39:06.695Z,150.71141
2022-08-24T01:44:07.584Z,151.40741
2022-08-24T01:49:08.494Z,151.40741
2022-08-24T01:54:09.377Z,150.71141
2022-08-24T01:59:10.243Z,151.40741
2022-08-24T02:04:11.213Z,151.40741
2022-08-24T02:09:18.552Z,151.40741
2022-08-24T02:14:19.466Z,151.40741
2022-08-24T02:24:20.859Z,150.71141
2022-08-24T02:29:21.771Z,150.71141
2022-08-24T02:34:22.694Z,150.02007
2022-08-24T02:39:23.577Z,149.33333
2022-08-24T02:44:24.501Z,149.33333
2022-08-24T02:49:25.468Z,149.33333
2022-08-24T02:54:26.349Z,149.33333
2022-08-24T02:59:27.251Z,149.33333
2022-08-24T03:04:28.218Z,148.65116
2022-08-24T03:09:29.318Z,148.65116
2022-08-24T03:14:30.345Z,149.33333
2022-08-24T03:19:31.281Z,149.33333
2022-08-24T03:24:32.141Z,149.33333
2022-08-24T03:29:33.843Z,149.33333
2022-08-24T03:34:34.981Z,149.33333
2022-08-24T03:39:35.870Z,149.33333
2022-08-24T03:44:36.742Z,149.33333
2022-08-24T03:49:37.801Z,149.33333
2022-08-24T03:54:38.768Z,148.65116
2022-08-24T03:59:46.418Z,148.65116
2022-08-24T04:04:47.936Z,148.65116
2022-08-24T04:09:48.836Z,148.65116
2022-08-24T04:14:49.735Z,148.65116
2022-08-24T04:19:50.640Z,147.97351
2022-08-24T04:24:51.923Z,148.65116
2022-08-24T04:29:52.929Z,148.65116
2022-08-24T04:34:53.885Z,148.65116
2022-08-24T04:39:54.941Z,148.65116
2022-08-24T04:44:55.985Z,148.65116
2022-08-24T04:49:57.057Z,148.65116
2022-08-24T04:54:58.041Z,148.65116
2022-08-24T04:59:58.962Z,147.97351
2022-08-24T05:04:59.889Z,148.65116
2022-08-24T05:10:00.964Z,148.65116
2022-08-24T05:15:01.905Z,147.30033
2022-08-24T05:20:03.001Z,146.63158
2022-08-24T05:25:03.915Z,146.63158
2022-08-24T05:30:04.847Z,146.63158
2022-08-24T05:35:05.784Z,146.63158
2022-08-24T05:40:06.802Z,147.30033
2022-08-24T05:45:07.847Z,147.97351
2022-08-24T05:50:08.773Z,147.30033
2022-08-24T06:00:10.148Z,146.63158
2022-08-24T06:05:11.189Z,145.96721
2022-08-24T06:10:35.390Z,145.30719
2022-08-24T06:15:37.563Z,145.30719
2022-08-24T06:20:38.467Z,144.65147
2022-08-24T06:25:39.368Z,144.0
2022-08-24T06:30:40.313Z,143.35275
2022-08-24T06:35:46.206Z,142.70968
2022-08-24T06:40:48.191Z,143.35275
2022-08-24T06:45:49.143Z,144.0
2022-08-24T06:50:50.069Z,143.35275
2022-08-24T06:55:50.934Z,142.70968
2022-08-24T07:00:51.839Z,142.07074
2022-08-24T07:05:53.061Z,142.07074
2022-08-24T07:10:53.966Z,142.07074
2022-08-24T07:15:54.946Z,143.35275
2022-08-24T07:20:55.907Z,142.70968
2022-08-24T07:25:57.128Z,144.0
2022-08-24T07:30:58.060Z,142.07074
2022-08-24T07:35:59.055Z,141.4359
2022-08-24T07:41:33.182Z,141.4359
2022-08-24T07:46:39.088Z,140.80511
2022-08-24T07:51:44.981Z,141.4359
2022-08-24T07:56:48.323Z,140.80511
2022-08-24T08:01:49.298Z,141.4359
2022-08-24T08:06:50.402Z,140.17834
2022-08-24T08:11:51.361Z,140.80511
2022-08-24T08:16:52.287Z,140.80511
2022-08-24T08:21:53.214Z,140.17834
2022-08-24T08:26:54.153Z,139.55556
2022-08-24T08:31:55.078Z,138.32177
2022-08-24T08:36:55.976Z,137.71069
2022-08-24T08:41:56.906Z,137.71069
2022-08-24T08:46:57.877Z,137.71069
2022-08-24T08:51:58.808Z,136.5
2022-08-24T08:56:59.760Z,136.5
2022-08-24T09:02:00.757Z,136.5
2022-08-24T09:07:01.904Z,136.5
2022-08-24T09:12:02.785Z,135.90031
2022-08-24T09:17:03.751Z,136.5
2022-08-24T09:22:04.703Z,136.5
2022-08-24T09:27:05.684Z,138.32177
2022-08-24T09:32:06.653Z,138.32177
2022-08-24T09:37:07.736Z,137.10345
2022-08-24T09:42:08.897Z,137.10345
2022-08-24T09:47:09.819Z,136.5
2022-08-24T09:52:10.757Z,136.5
2022-08-24T09:57:12.894Z,135.90031
2022-08-24T10:02:14.321Z,136.5
2022-08-24T10:07:15.391Z,135.30435
2022-08-24T10:12:16.290Z,136.5
2022-08-24T10:17:17.290Z,133.53846
2022-08-24T10:22:18.223Z,135.30435
2022-08-24T10:27:19.387Z,134.71207
2022-08-24T10:32:20.318Z,135.90031
2022-08-24T10:37:21.331Z,131.80488
2022-08-24T10:42:25.336Z,130.10272
2022-08-24T10:47:26.559Z,127.33333
2022-08-24T10:52:27.516Z,126.78932
2022-08-24T10:57:28.454Z,127.33333
2022-08-24T11:02:29.478Z,130.10272
2022-08-24T11:07:30.736Z,134.12346
2022-08-24T11:12:31.698Z,135.30435
2022-08-24T11:17:32.615Z,134.12346
2022-08-24T11:22:33.603Z,135.30435
2022-08-24T11:27:34.526Z,134.71207
2022-08-24T11:32:35.431Z,131.80488
2022-08-24T11:37:37.632Z,130.10272
2022-08-24T11:42:38.516Z,130.66667
2022-08-24T11:47:39.459Z,131.23404
2022-08-24T11:52:40.421Z,131.23404
2022-08-24T11:57:48.184Z,131.80488
2022-08-24T12:02:49.673Z,130.10272
2022-08-24T12:07:51.681Z,127.8806
2022-08-24T12:12:53.150Z,127.33333
2022-08-24T12:17:54.082Z,127.33333
2022-08-24T12:22:54.984Z,127.8806
2022-08-24T12:27:55.877Z,126.78932
2022-08-24T12:32:56.871Z,128.43114
2022-08-24T12:37:57.980Z,127.8806
2022-08-24T12:42:58.941Z,126.78932
2022-08-24T12:47:59.950Z,128.98498
2022-08-24T12:53:00.968Z,126.24852
2022-08-24T12:58:03.169Z,123.59184
2022-08-24T13:03:04.121Z,123.59184
2022-08-24T13:08:05.242Z,121.52161
2022-08-24T13:13:06.237Z,123.06977
2022-08-24T13:18:07.569Z,125.17647
2022-08-24T13:23:08.697Z,125.17647
2022-08-24T13:28:09.625Z,127.33333
2022-08-24T13:33:10.630Z,125.17647
2022-08-24T13:38:11.612Z,125.17647
2022-08-24T13:43:12.610Z,123.06977
2022-08-24T13:48:13.483Z,123.06977
2022-08-24T13:53:14.357Z,125.71091
2022-08-24T13:58:16.100Z,125.17647
2022-08-24T14:03:17.013Z,123.06977
2022-08-24T14:08:17.923Z,121.01149
2022-08-24T14:13:22.173Z,121.52161
2022-08-24T14:18:25.561Z,123.06977
2022-08-24T14:23:26.569Z,123.06977
2022-08-24T14:28:27.486Z,121.01149
2022-08-24T14:38:31.389Z,120.0
2022-08-24T14:43:32.276Z,120.5043
2022-08-24T14:48:33.187Z,120.0
2022-08-24T14:53:34.170Z,121.52161
2022-08-24T14:58:35.103Z,121.01149
2022-08-24T15:03:36.066Z,121.01149
2022-08-24T15:08:37.021Z,121.52161
2022-08-24T15:13:37.940Z,121.01149
2022-08-24T15:18:38.932Z,121.01149
2022-08-24T15:23:39.831Z,121.52161
2022-08-24T15:28:56.325Z,122.55072
2022-08-24T15:39:38.497Z,126.78932
2022-08-24T15:44:39.400Z,126.78932
2022-08-24T15:49:40.273Z,128.98498
2022-08-24T15:54:41.304Z,128.43114
2022-08-24T15:59:42.196Z,127.8806
2022-08-24T16:04:43.343Z,127.8806
2022-08-24T16:09:44.311Z,127.8806
2022-08-24T16:14:47.286Z,127.8806
2022-08-24T16:19:48.591Z,127.8806
2022-08-24T16:24:49.588Z,127.33333
2022-08-24T16:29:51.117Z,127.8806
2022-08-24T16:34:54.647Z,128.43114
2022-08-24T16:39:55.601Z,128.98498
2022-08-24T16:44:56.559Z,128.98498
2022-08-24T16:55:03.092Z,130.66667
2022-08-24T17:00:04.039Z,130.10272
2022-08-24T17:05:05.092Z,130.66667
2022-08-24T17:10:07.173Z,131.23404
2022-08-24T17:15:08.126Z,131.23404
2022-08-24T17:20:09.127Z,132.3792
2022-08-24T17:25:10.041Z,132.3792
2022-08-24T17:30:10.944Z,133.53846
2022-08-24T17:35:11.855Z,134.71207
2022-08-24T17:40:12.898Z,134.71207
2022-08-24T17:45:13.881Z,135.30435
2022-08-24T17:50:14.833Z,136.5
2022-08-24T17:55:15.781Z,136.5
2022-08-24T18:00:16.718Z,135.90031
2022-08-24T18:05:17.683Z,134.71207
2022-08-24T18:10:18.608Z,135.30435
2022-08-24T18:15:19.511Z,135.30435
2022-08-24T18:20:20.502Z,135.30435
2022-08-24T18:25:21.374Z,134.71207
2022-08-24T18:30:22.572Z,135.30435
2022-08-24T18:35:26.368Z,135.90031
2022-08-24T18:40:28.282Z,136.5
2022-08-24T18:45:34.212Z,135.90031
2022-08-24T18:50:38.834Z,135.90031
2022-08-24T18:55:47.486Z,135.90031
2022-08-24T19:00:48.759Z,136.5
2022-08-24T19:05:52.259Z,136.5
2022-08-24T19:10:53.245Z,136.5
2022-08-24T19:15:54.258Z,137.10345
2022-08-24T19:20:55.200Z,137.10345
2022-08-24T19:25:56.118Z,137.71069
2022-08-24T19:30:57.032Z,137.71069
2022-08-24T19:35:57.998Z,137.71069
2022-08-24T19:40:58.900Z,138.32177
2022-08-24T19:45:59.818Z,138.32177
2022-08-24T19:51:00.739Z,138.32177
2022-08-24T19:56:01.787Z,139.55556
2022-08-24T20:01:02.927Z,139.55556
2022-08-24T20:06:03.887Z,139.55556
2022-08-24T20:11:04.908Z,140.17834
2022-08-24T20:16:05.876Z,140.80511
2022-08-24T20:21:11.535Z,140.17834
2022-08-24T20:26:12.453Z,140.17834
2022-08-24T20:31:13.411Z,140.80511
2022-08-24T20:36:14.433Z,140.80511
2022-08-24T20:41:18.012Z,140.80511
2022-08-24T20:46:20.831Z,140.80511
2022-08-24T20:51:22.823Z,140.80511
2022-08-24T20:56:27.775Z,141.4359
2022-08-24T21:01:32.273Z,141.4359
2022-08-24T21:06:33.165Z,141.4359
2022-08-24T21:11:34.068Z,141.4359
2022-08-24T21:16:35.191Z,141.4359
2022-08-24T21:21:38.705Z,142.07074
2022-08-24T21:26:42.732Z,142.07074
2022-08-24T21:31:43.704Z,142.07074
2022-08-24T21:36:45.470Z,142.70968
2022-08-24T21:41:47.567Z,142.07074
2022-08-24T21:46:48.599Z,142.07074
2022-08-24T21:51:49.542Z,142.07074
2022-08-24T21:56:50.436Z,142.07074
2022-08-24T22:01:51.502Z,142.07074
2022-08-24T22:06:52.510Z,142.70968
2022-08-24T22:11:53.483Z,142.70968
2022-08-24T22:16:54.392Z,142.70968
2022-08-24T22:21:55.330Z,142.07074
2022-08-24T22:26:56.228Z,142.70968
2022-08-24T22:31:57.147Z,142.70968
2022-08-24T22:36:58.320Z,142.70968
2022-08-24T22:41:59.262Z,142.70968
2022-08-24T22:47:00.164Z,142.70968
2022-08-24T22:52:01.120Z,142.70968
2022-08-24T22:57:02.058Z,142.70968
2022-08-24T23:02:03.050Z,143.35275
2022-08-24T23:07:04.003Z,143.35275
2022-08-24T23:12:04.935Z,142.70968
2022-08-24T23:17:06.145Z,142.70968
2022-08-24T23:22:07.042Z,142.70968
2022-08-24T23:27:07.965Z,142.70968
2022-08-24T23:32:08.866Z,142.70968
2022-08-24T23:37:09.761Z,142.70968
2022-08-24T23:42:10.729Z,143.35275
2022-08-24T23:47:11.644Z,143.35275
2022-08-24T23:52:28.223Z,143.35275
2022-08-24T23:57:30.784Z,144.0
